Time;durP1;ratioP1;P1;durP2;ratioP2;P2;SDS_P1;SDS_P2;PMS_P1;PMS_P2;Temp;Humidity;BMP_temperature;BMP_pressure;BME280_temperature;BME280_humidity;BME280_pressure;Samples;Min_cycle;Max_cycle;Signal;HPM_P1;HPM_P2
2023/08/04 00:00:21;;;;;;;4.65;1.85;;;15.90;99.90;;;;;;7554910;19;20060;-74
2023/08/04 00:02:53;;;;;;;3.78;1.77;;;15.90;99.90;;;;;;7572786;19;20038;-71
2023/08/04 00:05:25;;;;;;;6.80;1.83;;;15.80;99.90;;;;;;7577300;19;20018;-71
2023/08/04 00:07:58;;;;;;;3.58;1.90;;;15.80;99.90;;;;;;7561693;19;20098;-71
2023/08/04 00:10:30;;;;;;;4.97;2.30;;;15.90;99.90;;;;;;7539924;19;20518;-72
2023/08/04 00:13:02;;;;;;;4.70;1.67;;;15.90;99.90;;;;;;7554310;19;20853;-71
2023/08/04 00:15:35;;;;;;;5.15;2.05;;;15.90;99.90;;;;;;7550273;19;20018;-72
2023/08/04 00:18:07;;;;;;;4.68;1.95;;;15.80;99.90;;;;;;7562434;19;20006;-72
2023/08/04 00:20:39;;;;;;;4.00;1.75;;;15.80;99.90;;;;;;7563772;19;20098;-72
2023/08/04 00:23:11;;;;;;;8.82;2.13;;;15.80;99.90;;;;;;7558601;19;20015;-71
2023/08/04 00:25:44;;;;;;;10.48;2.33;;;15.80;99.90;;;;;;7556841;19;20838;-72
2023/08/04 00:28:16;;;;;;;7.18;2.00;;;15.80;99.90;;;;;;7570687;19;20018;-72
2023/08/04 00:30:49;;;;;;;3.85;2.00;;;15.70;99.90;;;;;;7559714;19;20090;-73
2023/08/04 00:33:22;;;;;;;3.93;2.00;;;15.80;99.90;;;;;;7578704;19;20011;-73
2023/08/04 00:35:54;;;;;;;5.03;2.25;;;15.80;99.90;;;;;;7569914;19;20463;-73
2023/08/04 00:38:27;;;;;;;4.22;2.20;;;15.80;99.90;;;;;;7556156;19;20015;-75
2023/08/04 00:40:59;;;;;;;3.70;1.80;;;15.70;99.90;;;;;;7554680;19;21412;-73
2023/08/04 00:43:32;;;;;;;4.25;2.13;;;15.70;99.90;;;;;;7559909;19;20038;-72
2023/08/04 00:46:04;;;;;;;8.27;1.92;;;15.60;99.90;;;;;;7572170;19;20368;-75
2023/08/04 00:48:38;;;;;;;3.03;1.70;;;15.60;99.90;;;;;;7572516;19;20011;-71
2023/08/04 00:51:11;;;;;;;;;;;15.60;99.90;;;;;;7555472;19;20287;-71
2023/08/04 00:53:44;;;;;;;9.88;2.33;;;15.50;99.90;;;;;;7552503;19;19930;-72
2023/08/04 00:56:16;;;;;;;3.55;2.00;;;15.60;99.90;;;;;;7553470;19;20039;-73
2023/08/04 00:58:48;;;;;;;7.15;2.00;;;15.50;99.90;;;;;;7568269;19;20041;-72
2023/08/04 01:01:21;;;;;;;7.20;2.20;;;15.50;99.90;;;;;;7578362;19;20598;-74
2023/08/04 01:03:55;;;;;;;3.97;2.20;;;15.50;99.90;;;;;;7555962;19;20026;-74
2023/08/04 01:06:41;;;;;;;4.97;2.22;;;15.50;99.90;;;;;;7547805;19;20543;-75
2023/08/04 01:09:49;;;;;;;3.45;2.00;;;15.50;99.90;;;;;;7544217;19;21279;-75
2023/08/04 01:12:51;;;;;;;4.85;2.17;;;15.50;99.90;;;;;;7553521;19;20015;-73
2023/08/04 01:15:26;;;;;;;3.83;1.80;;;15.50;99.90;;;;;;7566587;19;20010;-74
2023/08/04 01:17:59;;;;;;;5.88;2.42;;;15.50;99.90;;;;;;7567468;19;20776;-76
2023/08/04 01:20:32;;;;;;;4.57;1.77;;;15.50;99.90;;;;;;7569378;19;20063;-74
2023/08/04 01:23:05;;;;;;;6.07;2.30;;;15.50;99.90;;;;;;7539204;19;20021;-74
2023/08/04 01:25:37;;;;;;;5.53;2.33;;;15.50;99.90;;;;;;7557473;19;21111;-75
2023/08/04 01:28:15;;;;;;;5.35;2.30;;;15.50;99.90;;;;;;7560103;19;20236;-74
2023/08/04 01:30:49;;;;;;;3.00;1.50;;;15.50;99.90;;;;;;7553692;19;20574;-75
2023/08/04 01:33:22;;;;;;;4.43;2.03;;;15.50;99.90;;;;;;7556736;19;20760;-74
2023/08/04 01:35:54;;;;;;;3.85;1.92;;;15.50;99.90;;;;;;7557102;19;20332;-74
2023/08/04 01:38:26;;;;;;;7.05;2.33;;;15.40;99.90;;;;;;7596816;19;20029;-73
2023/08/04 01:40:59;;;;;;;4.45;2.13;;;15.50;99.90;;;;;;7564268;19;20043;-73
2023/08/04 01:43:32;;;;;;;4.40;2.23;;;15.50;99.90;;;;;;7564358;19;20051;-73
2023/08/04 01:46:04;;;;;;;4.55;1.80;;;15.50;99.90;;;;;;7554879;19;20018;-75
2023/08/04 01:48:36;;;;;;;3.72;1.75;;;15.50;99.90;;;;;;7548851;19;20015;-74
2023/08/04 01:51:09;;;;;;;4.07;2.15;;;15.50;99.90;;;;;;7559805;19;20059;-74
2023/08/04 01:53:41;;;;;;;2.55;1.80;;;15.40;99.90;;;;;;7565394;19;20018;-74
2023/08/04 01:56:13;;;;;;;7.65;2.50;;;15.40;99.90;;;;;;7594604;19;20026;-74
2023/08/04 01:58:45;;;;;;;4.05;1.80;;;15.30;99.90;;;;;;7565051;19;20581;-74
2023/08/04 02:01:20;;;;;;;4.72;2.15;;;15.40;99.90;;;;;;7562438;19;20018;-75
2023/08/04 02:03:53;;;;;;;7.25;2.00;;;15.40;99.90;;;;;;7558735;19;20014;-74
2023/08/04 02:06:25;;;;;;;3.30;1.90;;;15.40;99.90;;;;;;7544868;19;20019;-74
2023/08/04 02:08:58;;;;;;;3.05;1.40;;;15.40;99.90;;;;;;7535646;19;20018;-73
2023/08/04 02:11:31;;;;;;;4.38;1.55;;;15.40;99.90;;;;;;7550927;19;20342;-74
2023/08/04 02:14:04;;;;;;;2.40;1.45;;;15.40;99.90;;;;;;7564771;19;20033;-74
2023/08/04 02:16:36;;;;;;;2.63;1.80;;;15.40;99.90;;;;;;7561971;19;20018;-73
2023/08/04 02:19:09;;;;;;;5.50;2.03;;;15.40;99.90;;;;;;7561153;19;20010;-74
2023/08/04 02:21:42;;;;;;;6.35;1.90;;;15.40;99.90;;;;;;7565052;19;20022;-74
2023/08/04 02:24:14;;;;;;;3.40;1.63;;;15.40;99.90;;;;;;7562039;19;20051;-75
2023/08/04 02:26:47;;;;;;;3.80;2.03;;;15.40;99.90;;;;;;7561485;19;20014;-72
2023/08/04 02:29:19;;;;;;;4.63;1.85;;;15.30;99.90;;;;;;7550965;19;20014;-72
2023/08/04 02:31:52;;;;;;;4.55;2.30;;;15.40;99.90;;;;;;7543935;19;20306;-73
2023/08/04 02:34:24;;;;;;;3.53;1.90;;;15.30;99.90;;;;;;7562313;19;21732;-72
2023/08/04 02:36:57;;;;;;;3.50;1.65;;;15.30;99.90;;;;;;7576805;19;20037;-73
2023/08/04 02:39:33;;;;;;;4.78;1.98;;;15.30;99.90;;;;;;7567108;19;20492;-72
2023/08/04 02:42:07;;;;;;;4.38;1.95;;;15.30;99.90;;;;;;7501221;19;20323;-74
2023/08/04 02:44:41;;;;;;;6.50;1.90;;;15.30;99.90;;;;;;7540617;19;20439;-72
2023/08/04 02:47:14;;;;;;;5.03;1.98;;;15.30;99.90;;;;;;7538221;19;20023;-73
2023/08/04 02:49:46;;;;;;;4.55;2.00;;;15.30;99.90;;;;;;7512612;19;22673;-73
2023/08/04 02:52:18;;;;;;;4.43;2.05;;;15.30;99.90;;;;;;7561859;19;20535;-73
2023/08/04 02:54:54;;;;;;;5.70;2.28;;;15.20;99.90;;;;;;7548087;19;21551;-73
2023/08/04 02:57:30;;;;;;;9.10;2.25;;;15.20;99.90;;;;;;7472532;19;20018;-74
2023/08/04 03:00:05;;;;;;;4.18;2.25;;;15.20;99.90;;;;;;7550086;19;20106;-72
2023/08/04 03:02:39;;;;;;;4.72;1.92;;;15.30;99.90;;;;;;7534371;19;20074;-73
2023/08/04 03:05:11;;;;;;;2.85;1.60;;;15.20;99.90;;;;;;7533739;19;20021;-73
2023/08/04 03:07:44;;;;;;;7.03;1.50;;;15.20;99.90;;;;;;7557114;19;20018;-72
2023/08/04 03:10:16;;;;;;;3.83;1.90;;;15.20;99.90;;;;;;7557423;19;20042;-72
2023/08/04 03:12:49;;;;;;;3.63;2.25;;;15.20;99.90;;;;;;7556715;19;20042;-73
2023/08/04 03:15:21;;;;;;;4.22;2.00;;;15.10;99.90;;;;;;7552482;19;20007;-73
2023/08/04 03:17:54;;;;;;;4.67;1.70;;;15.10;99.90;;;;;;7545256;19;20094;-72
2023/08/04 03:20:29;;;;;;;7.25;2.30;;;15.10;99.90;;;;;;7566689;19;20018;-72
2023/08/04 03:23:02;;;;;;;2.45;1.90;;;15.10;99.90;;;;;;7562126;19;20018;-72
2023/08/04 03:25:35;;;;;;;2.33;1.27;;;15.10;99.90;;;;;;7552193;19;20809;-73
2023/08/04 03:28:07;;;;;;;4.28;1.83;;;15.10;99.90;;;;;;7558897;19;21074;-72
2023/08/04 03:30:40;;;;;;;2.30;1.10;;;15.20;99.90;;;;;;7541954;19;21135;-72
2023/08/04 03:33:12;;;;;;;2.53;1.40;;;15.30;99.90;;;;;;7561345;19;20006;-73
2023/08/04 03:35:44;;;;;;;3.17;1.42;;;15.20;99.90;;;;;;7551676;19;24064;-73
2023/08/04 03:38:17;;;;;;;3.17;1.50;;;15.20;99.90;;;;;;7570384;19;20014;-73
2023/08/04 03:40:49;;;;;;;2.15;1.10;;;15.20;99.90;;;;;;7569783;19;22483;-72
2023/08/04 03:43:21;;;;;;;4.40;1.30;;;15.20;99.90;;;;;;7572628;19;20014;-72
2023/08/04 03:45:53;;;;;;;4.18;1.50;;;15.20;99.90;;;;;;7542055;19;20014;-72
2023/08/04 03:48:25;;;;;;;2.97;1.33;;;15.10;99.90;;;;;;7551843;19;20065;-73
2023/08/04 03:50:58;;;;;;;3.53;1.40;;;15.10;99.90;;;;;;7589033;19;21335;-73
2023/08/04 03:53:30;;;;;;;4.70;1.70;;;15.00;99.90;;;;;;7542110;19;21102;-72
2023/08/04 03:56:03;;;;;;;5.43;1.63;;;15.10;99.90;;;;;;7556557;19;20030;-73
2023/08/04 03:58:35;;;;;;;2.60;1.10;;;15.00;99.90;;;;;;7545747;19;20019;-73
2023/08/04 04:01:08;;;;;;;2.80;1.50;;;15.00;99.90;;;;;;7571008;19;20025;-72
2023/08/04 04:03:40;;;;;;;3.33;1.73;;;14.90;99.90;;;;;;7562047;19;20019;-73
2023/08/04 04:06:12;;;;;;;2.65;1.25;;;14.90;99.90;;;;;;7560746;19;20022;-72
2023/08/04 04:08:45;;;;;;;4.93;1.53;;;14.90;99.90;;;;;;7543717;19;20015;-73
2023/08/04 04:11:18;;;;;;;3.10;1.00;;;14.90;99.90;;;;;;7570647;19;20026;-73
2023/08/04 04:13:50;;;;;;;2.45;1.10;;;14.90;99.90;;;;;;7553873;19;20811;-73
2023/08/04 04:16:22;;;;;;;4.72;1.63;;;14.90;99.90;;;;;;7535010;19;20474;-72
2023/08/04 04:18:55;;;;;;;1.73;1.17;;;14.80;99.90;;;;;;7483030;19;21182;-72
2023/08/04 04:21:27;;;;;;;2.88;1.33;;;14.70;99.90;;;;;;7544485;19;20018;-72
2023/08/04 04:23:59;;;;;;;3.80;1.40;;;14.80;99.90;;;;;;7543160;19;20026;-73
2023/08/04 04:26:32;;;;;;;4.20;1.27;;;14.70;99.90;;;;;;7572329;19;20017;-72
2023/08/04 04:29:05;;;;;;;1.80;1.10;;;14.70;99.90;;;;;;7569827;19;20644;-72
2023/08/04 04:31:37;;;;;;;2.72;1.30;;;14.80;99.90;;;;;;7565105;19;20018;-72
2023/08/04 04:34:10;;;;;;;4.72;1.30;;;14.80;99.90;;;;;;7576354;19;20063;-73
2023/08/04 04:36:42;;;;;;;3.33;1.55;;;14.80;99.90;;;;;;7564889;19;20051;-72
2023/08/04 04:39:14;;;;;;;2.50;1.20;;;14.80;99.90;;;;;;7558371;19;20599;-72
2023/08/04 04:41:47;;;;;;;4.30;1.63;;;14.90;99.90;;;;;;7550397;19;20030;-72
2023/08/04 04:44:20;;;;;;;3.45;1.27;;;14.90;99.90;;;;;;7548539;19;20434;-73
2023/08/04 04:46:52;;;;;;;3.03;1.10;;;14.90;99.90;;;;;;7542982;19;21105;-72
2023/08/04 04:49:25;;;;;;;3.55;1.10;;;14.80;99.90;;;;;;7543544;19;20014;-73
2023/08/04 04:51:57;;;;;;;4.70;1.05;;;14.80;99.90;;;;;;7524616;19;21234;-72
2023/08/04 04:54:29;;;;;;;1.52;1.10;;;14.80;99.90;;;;;;7550120;19;20461;-73
2023/08/04 04:57:02;;;;;;;3.40;1.20;;;14.80;99.90;;;;;;7544931;19;20022;-73
2023/08/04 04:59:35;;;;;;;3.95;1.50;;;14.80;99.90;;;;;;7541152;19;20014;-72
2023/08/04 05:02:07;;;;;;;4.23;1.27;;;14.70;99.90;;;;;;7551942;19;20805;-73
2023/08/04 05:04:40;;;;;;;2.47;1.47;;;14.60;99.90;;;;;;7535757;19;20950;-73
2023/08/04 05:07:12;;;;;;;3.45;1.40;;;14.60;99.90;;;;;;7535442;19;20035;-72
2023/08/04 05:09:44;;;;;;;5.15;1.50;;;14.60;99.90;;;;;;7541399;19;20051;-74
2023/08/04 05:12:16;;;;;;;2.00;1.15;;;14.70;99.90;;;;;;7543488;19;20015;-74
2023/08/04 05:14:49;;;;;;;3.80;1.10;;;14.60;99.90;;;;;;7538178;19;20045;-74
2023/08/04 05:17:21;;;;;;;3.55;1.45;;;14.80;99.90;;;;;;7534073;19;20025;-74
2023/08/04 05:19:53;;;;;;;4.07;1.20;;;14.80;99.90;;;;;;7539576;19;20014;-74
2023/08/04 05:22:27;;;;;;;3.20;1.40;;;14.90;99.90;;;;;;7546790;19;20994;-75
2023/08/04 05:24:59;;;;;;;5.72;1.45;;;14.90;99.90;;;;;;7532561;19;20057;-75
2023/08/04 05:27:42;;;;;;;2.67;1.50;;;14.80;99.90;;;;;;7529814;19;20021;-73
2023/08/04 05:30:14;;;;;;;4.70;1.17;;;14.80;99.90;;;;;;7517006;19;20373;-76
2023/08/04 05:32:47;;;;;;;4.40;1.58;;;14.90;99.90;;;;;;7517477;19;20033;-76
2023/08/04 05:35:20;;;;;;;3.90;1.27;;;14.90;99.90;;;;;;7525973;19;20025;-73
2023/08/04 05:37:52;;;;;;;4.70;1.30;;;14.90;99.90;;;;;;7515140;19;20105;-73
2023/08/04 05:40:24;;;;;;;1.67;1.40;;;15.00;99.90;;;;;;7530773;19;20022;-75
2023/08/04 05:42:57;;;;;;;3.05;1.35;;;15.00;99.90;;;;;;7532960;19;20063;-73
2023/08/04 05:45:35;;;;;;;6.25;1.48;;;15.00;99.90;;;;;;7542166;19;20018;-75
2023/08/04 05:48:07;;;;;;;4.63;1.88;;;15.10;99.90;;;;;;7526308;19;21658;-75
2023/08/04 05:50:40;;;;;;;7.47;1.63;;;15.10;99.90;;;;;;7547003;19;21526;-74
2023/08/04 05:53:12;;;;;;;4.07;1.60;;;15.10;99.90;;;;;;7541456;19;20018;-74
2023/08/04 05:55:44;;;;;;;4.55;1.88;;;15.00;99.90;;;;;;7541317;19;21582;-74
2023/08/04 05:58:17;;;;;;;3.50;1.60;;;15.00;99.90;;;;;;7545176;19;20019;-74
2023/08/04 06:00:50;;;;;;;3.67;1.58;;;15.00;99.90;;;;;;7518367;19;20014;-74
2023/08/04 06:03:22;;;;;;;4.73;1.60;;;15.00;99.90;;;;;;7542401;19;20015;-74
2023/08/04 06:05:54;;;;;;;2.50;1.40;;;15.10;99.90;;;;;;7535981;19;20051;-73
2023/08/04 06:08:27;;;;;;;2.78;1.83;;;15.10;99.90;;;;;;7517132;19;20016;-73
2023/08/04 06:10:59;;;;;;;3.00;1.50;;;15.20;99.90;;;;;;7540279;19;20014;-74
2023/08/04 06:13:34;;;;;;;7.83;1.73;;;15.30;99.90;;;;;;7539726;19;20010;-74
2023/08/04 06:16:07;;;;;;;3.72;1.60;;;15.40;99.90;;;;;;7540013;19;20055;-74
2023/08/04 06:18:40;;;;;;;2.53;1.52;;;15.40;99.90;;;;;;7559688;19;20033;-74
2023/08/04 06:21:12;;;;;;;2.22;1.60;;;15.40;99.90;;;;;;7544717;19;20018;-73
2023/08/04 06:23:47;;;;;;;5.25;1.73;;;15.50;99.90;;;;;;7553081;19;20755;-74
2023/08/04 06:26:20;;;;;;;5.72;1.33;;;15.40;99.90;;;;;;7526431;19;20014;-74
2023/08/04 06:28:55;;;;;;;7.13;1.75;;;15.50;99.90;;;;;;7558740;19;20029;-73
2023/08/04 06:31:27;;;;;;;3.03;1.30;;;15.50;99.90;;;;;;7545912;19;20059;-74
2023/08/04 06:33:59;;;;;;;4.07;1.83;;;15.60;99.90;;;;;;7547818;19;20074;-74
2023/08/04 06:36:32;;;;;;;10.52;4.03;;;15.60;99.90;;;;;;7540767;19;20938;-73
2023/08/04 06:39:04;;;;;;;3.30;1.70;;;15.70;99.90;;;;;;7539467;19;20709;-74
2023/08/04 06:41:36;;;;;;;3.55;1.45;;;15.70;99.90;;;;;;7531870;19;20018;-73
2023/08/04 06:44:13;;;;;;;3.08;2.25;;;15.70;99.90;;;;;;7541672;19;20118;-74
2023/08/04 06:46:45;;;;;;;4.88;1.35;;;15.80;99.90;;;;;;7532048;19;22936;-73
2023/08/04 06:49:17;;;;;;;5.22;1.40;;;15.70;99.90;;;;;;7527014;19;20350;-74
2023/08/04 06:51:50;;;;;;;1.90;1.40;;;15.70;99.90;;;;;;7519248;19;20660;-74
2023/08/04 06:54:22;;;;;;;2.90;1.33;;;15.70;99.90;;;;;;7535250;19;20025;-73
2023/08/04 06:56:55;;;;;;;3.92;1.75;;;15.80;99.90;;;;;;7538299;19;20017;-73
2023/08/04 06:59:27;;;;;;;2.78;1.45;;;15.90;99.90;;;;;;7535302;19;20017;-73
2023/08/04 07:02:01;;;;;;;2.70;1.40;;;15.90;99.90;;;;;;7518537;19;20010;-73
2023/08/04 07:04:33;;;;;;;1.60;1.15;;;15.90;99.90;;;;;;7524207;19;20035;-74
2023/08/04 07:07:06;;;;;;;2.63;1.10;;;16.00;99.90;;;;;;7552278;19;20224;-74
2023/08/04 07:09:38;;;;;;;2.97;1.20;;;15.90;99.90;;;;;;7516965;19;20063;-73
2023/08/04 07:12:11;;;;;;;3.03;1.50;;;15.90;99.90;;;;;;7516315;19;20022;-72
2023/08/04 07:14:43;;;;;;;2.63;1.13;;;15.90;99.90;;;;;;7530540;19;20366;-73
2023/08/04 07:17:15;;;;;;;4.65;1.38;;;15.80;99.90;;;;;;7523856;19;20054;-74
2023/08/04 07:19:49;;;;;;;4.50;1.30;;;15.80;99.90;;;;;;7520522;19;20029;-74
2023/08/04 07:22:21;;;;;;;1.63;1.00;;;15.80;99.90;;;;;;7540115;19;22480;-74
2023/08/04 07:24:54;;;;;;;3.00;1.30;;;15.90;99.90;;;;;;7539681;19;20090;-73
2023/08/04 07:27:26;;;;;;;1.63;1.10;;;15.80;99.90;;;;;;7540220;19;20022;-73
2023/08/04 07:29:59;;;;;;;1.60;1.08;;;15.80;99.90;;;;;;7532802;19;20014;-73
2023/08/04 07:32:31;;;;;;;3.50;1.17;;;16.00;99.90;;;;;;7524999;19;20807;-74
2023/08/04 07:35:04;;;;;;;2.67;1.05;;;15.90;99.90;;;;;;7518340;19;20743;-75
2023/08/04 07:37:37;;;;;;;6.10;1.70;;;16.10;99.90;;;;;;7555497;19;20046;-73
2023/08/04 07:40:10;;;;;;;2.22;1.08;;;16.10;99.90;;;;;;7523679;19;20010;-74
2023/08/04 07:42:42;;;;;;;4.07;1.23;;;16.20;99.90;;;;;;7514525;19;20014;-74
2023/08/04 07:45:14;;;;;;;1.80;0.98;;;16.20;99.90;;;;;;7527679;19;20026;-74
2023/08/04 07:47:47;;;;;;;2.92;0.70;;;16.20;99.90;;;;;;7544990;19;20006;-74
2023/08/04 07:50:19;;;;;;;2.30;1.05;;;16.30;99.90;;;;;;7527481;19;20011;-74
2023/08/04 07:52:52;;;;;;;3.85;0.93;;;16.30;99.90;;;;;;7545435;19;20096;-74
2023/08/04 07:55:24;;;;;;;3.40;1.10;;;16.40;99.90;;;;;;7537894;19;20686;-74
2023/08/04 07:57:56;;;;;;;2.67;0.80;;;16.50;99.90;;;;;;7521227;19;20048;-74
2023/08/04 08:00:29;;;;;;;4.25;1.15;;;16.60;99.90;;;;;;7545681;19;20018;-75
2023/08/04 08:03:02;;;;;;;10.10;1.63;;;16.60;99.90;;;;;;7532403;19;20022;-73
2023/08/04 08:05:34;;;;;;;1.75;0.90;;;16.70;99.90;;;;;;7516421;19;20017;-74
2023/08/04 08:08:08;;;;;;;2.22;0.93;;;16.70;99.90;;;;;;7541684;19;20070;-74
2023/08/04 08:10:40;;;;;;;4.38;1.05;;;16.80;99.90;;;;;;7527768;19;20017;-71
2023/08/04 08:13:13;;;;;;;1.08;0.70;;;16.80;99.90;;;;;;7514219;19;20023;-75
2023/08/04 08:15:45;;;;;;;1.80;0.70;;;16.90;99.90;;;;;;7520922;19;20525;-74
2023/08/04 08:18:18;;;;;;;1.50;0.80;;;16.80;99.90;;;;;;7531770;19;20018;-73
2023/08/04 08:20:51;;;;;;;1.80;1.02;;;16.90;99.90;;;;;;7528680;19;21610;-76
2023/08/04 08:23:23;;;;;;;2.05;0.73;;;17.00;99.90;;;;;;7546152;19;20018;-75
2023/08/04 08:25:56;;;;;;;3.92;1.00;;;17.10;99.90;;;;;;7506756;19;20017;-75
2023/08/04 08:28:28;;;;;;;2.30;1.10;;;17.10;99.90;;;;;;7547994;19;20030;-73
2023/08/04 08:31:00;;;;;;;2.15;1.02;;;17.20;99.90;;;;;;7528495;19;20489;-72
2023/08/04 08:33:33;;;;;;;2.90;0.95;;;17.30;99.90;;;;;;7509524;19;20059;-72
2023/08/04 08:36:06;;;;;;;1.47;1.20;;;17.40;99.90;;;;;;7520965;19;20130;-73
2023/08/04 08:38:39;;;;;;;1.63;0.90;;;17.50;99.90;;;;;;7551991;19;20065;-73
2023/08/04 08:41:13;;;;;;;1.90;0.90;;;17.70;99.90;;;;;;7519690;19;20018;-72
2023/08/04 08:43:46;;;;;;;1.63;1.13;;;17.90;99.90;;;;;;7525095;19;20719;-73
2023/08/04 08:46:20;;;;;;;1.65;0.88;;;17.90;99.90;;;;;;7523632;19;20010;-74
2023/08/04 08:48:58;;;;;;;3.08;1.10;;;17.90;99.90;;;;;;7524553;19;20059;-74
2023/08/04 08:51:32;;;;;;;1.63;1.00;;;17.80;99.90;;;;;;7486364;19;20018;-73
2023/08/04 08:54:06;;;;;;;2.47;1.10;;;17.90;99.90;;;;;;7519684;19;20183;-72
2023/08/04 08:56:38;;;;;;;;;;;17.80;99.90;;;;;;7513035;19;20014;-73
2023/08/04 08:59:11;;;;;;;1.88;1.17;;;17.80;99.90;;;;;;7534258;19;20310;-74
2023/08/04 09:01:44;;;;;;;4.17;1.17;;;17.70;99.90;;;;;;7527136;19;20034;-73
2023/08/04 09:04:17;;;;;;;3.15;1.02;;;17.70;99.90;;;;;;7514037;19;20116;-74
2023/08/04 09:06:50;;;;;;;2.23;1.20;;;17.80;99.90;;;;;;7469871;19;20021;-73
2023/08/04 09:09:23;;;;;;;3.47;1.60;;;17.80;99.90;;;;;;7555226;19;20015;-75
2023/08/04 09:11:56;;;;;;;1.48;0.85;;;17.90;99.90;;;;;;7532312;19;20007;-73
2023/08/04 09:14:50;;;;;;;1.77;1.20;;;18.00;99.90;;;;;;7518965;19;21545;-75
2023/08/04 09:17:29;;;;;;;5.63;1.20;;;18.00;99.90;;;;;;7517732;19;20055;-74
2023/08/04 09:20:05;;;;;;;2.90;1.10;;;18.00;99.90;;;;;;7517145;19;20287;-73
2023/08/04 09:22:43;;;;;;;1.52;1.20;;;18.10;99.90;;;;;;7478774;19;20573;-73
2023/08/04 09:25:16;;;;;;;1.60;1.00;;;18.10;99.90;;;;;;7549702;19;20015;-72
2023/08/04 09:27:51;;;;;;;2.83;1.52;;;18.10;99.90;;;;;;7522422;19;20025;-73
2023/08/04 09:30:24;;;;;;;1.42;0.95;;;18.20;99.90;;;;;;7519757;19;20022;-73
2023/08/04 09:32:57;;;;;;;1.35;0.95;;;18.20;99.90;;;;;;7517389;19;20025;-73
2023/08/04 09:35:31;;;;;;;1.63;0.97;;;18.30;99.90;;;;;;7516332;19;20438;-72
2023/08/04 09:38:03;;;;;;;;;;;18.40;99.90;;;;;;7544724;19;20291;-73
2023/08/04 09:40:35;;;;;;;4.55;1.05;;;18.30;99.90;;;;;;7518003;19;19926;-73
2023/08/04 09:43:08;;;;;;;3.22;1.33;;;18.40;99.90;;;;;;7510389;19;20403;-74
2023/08/04 09:45:41;;;;;;;1.75;1.15;;;18.50;99.90;;;;;;7503122;19;20632;-74
2023/08/04 09:48:14;;;;;;;2.38;1.25;;;18.60;99.90;;;;;;7504397;19;20017;-74
2023/08/04 09:50:46;;;;;;;3.45;1.38;;;18.70;99.90;;;;;;7547121;19;21051;-74
2023/08/04 09:53:19;;;;;;;4.57;1.13;;;18.80;99.90;;;;;;7515483;19;22129;-74
2023/08/04 09:55:51;;;;;;;3.25;1.35;;;18.80;99.90;;;;;;7526910;19;20018;-74
2023/08/04 09:58:24;;;;;;;4.85;1.30;;;18.90;99.90;;;;;;7498391;19;20027;-74
2023/08/04 10:00:57;;;;;;;4.32;1.05;;;18.90;99.90;;;;;;7491405;19;20043;-74
2023/08/04 10:03:29;;;;;;;3.58;1.38;;;18.90;99.90;;;;;;7532889;19;20451;-73
2023/08/04 10:06:03;;;;;;;2.17;1.17;;;18.90;99.90;;;;;;7481874;19;20003;-75
2023/08/04 10:08:41;;;;;;;3.08;1.20;;;18.90;99.90;;;;;;7548508;19;20396;-74
2023/08/04 10:11:14;;;;;;;3.90;1.05;;;19.00;99.90;;;;;;7535960;19;20042;-73
2023/08/04 10:13:53;;;;;;;1.67;1.10;;;19.00;99.90;;;;;;7514802;19;20010;-73
2023/08/04 10:16:31;;;;;;;2.25;1.20;;;19.10;99.90;;;;;;7503544;19;20670;-74
2023/08/04 10:19:06;;;;;;;1.75;1.00;;;19.10;99.90;;;;;;7531655;19;20019;-73
2023/08/04 10:21:41;;;;;;;3.13;1.10;;;19.20;99.90;;;;;;7518881;19;20015;-72
2023/08/04 10:24:14;;;;;;;2.85;1.10;;;19.30;99.90;;;;;;7517401;19;20629;-72
2023/08/04 10:26:49;;;;;;;1.65;1.15;;;19.30;99.90;;;;;;7554430;19;20014;-74
2023/08/04 10:29:34;;;;;;;3.97;1.13;;;19.30;99.90;;;;;;7529571;19;20016;-71
2023/08/04 10:32:08;;;;;;;4.03;1.20;;;19.30;99.90;;;;;;7502191;19;21640;-72
2023/08/04 10:34:43;;;;;;;2.85;1.38;;;19.30;99.90;;;;;;7491865;19;20589;-72
2023/08/04 10:37:16;;;;;;;;;;;19.20;99.90;;;;;;7503611;19;20491;-71
2023/08/04 10:39:55;;;;;;;3.35;1.00;;;19.10;99.90;;;;;;7535150;19;19918;-71
2023/08/04 10:42:30;;;;;;;5.68;1.15;;;19.10;99.90;;;;;;7522496;19;20053;-71
2023/08/04 10:45:07;;;;;;;2.03;1.15;;;19.00;99.90;;;;;;7527889;19;20015;-71
2023/08/04 10:47:47;;;;;;;4.05;1.17;;;19.10;99.90;;;;;;7533375;19;20018;-74
2023/08/04 10:50:40;;;;;;;3.45;1.30;;;19.20;99.90;;;;;;7559551;19;20254;-69
2023/08/04 10:53:14;;;;;;;1.65;1.25;;;19.30;99.90;;;;;;7529898;19;20014;-73
2023/08/04 10:55:54;;;;;;;2.83;1.13;;;19.40;99.90;;;;;;7518067;19;20018;-71
2023/08/04 10:58:28;;;;;;;2.22;1.15;;;19.40;99.90;;;;;;7529104;19;20925;-73
2023/08/04 11:01:01;;;;;;;1.45;1.08;;;19.60;99.90;;;;;;7536107;19;20042;-72
2023/08/04 11:03:33;;;;;;;4.37;1.33;;;19.60;99.90;;;;;;7543757;19;20006;-71
2023/08/04 11:06:06;;;;;;;2.53;1.13;;;19.70;99.90;;;;;;7543820;19;20839;-70
2023/08/04 11:08:39;;;;;;;1.77;1.17;;;19.70;99.90;;;;;;7539607;19;20102;-71
2023/08/04 11:11:12;;;;;;;1.73;1.03;;;19.70;99.90;;;;;;7532915;19;21718;-72
2023/08/04 11:13:44;;;;;;;1.95;1.20;;;19.60;99.90;;;;;;7550198;19;20246;-71
2023/08/04 11:16:17;;;;;;;2.35;1.20;;;19.70;99.90;;;;;;7520854;19;20029;-71
2023/08/04 11:18:53;;;;;;;2.90;1.40;;;19.80;99.90;;;;;;7542968;19;20026;-71
2023/08/04 11:21:28;;;;;;;2.85;1.00;;;19.90;99.90;;;;;;7530527;19;20003;-71
2023/08/04 11:24:01;;;;;;;1.13;0.95;;;19.90;99.90;;;;;;7547880;19;20030;-71
2023/08/04 11:26:33;;;;;;;1.08;0.90;;;20.10;99.90;;;;;;7534607;19;20020;-71
2023/08/04 11:29:05;;;;;;;2.80;1.17;;;20.40;99.90;;;;;;7543246;19;20935;-71
2023/08/04 11:31:41;;;;;;;1.90;1.20;;;20.60;99.90;;;;;;7499587;19;20033;-71
2023/08/04 11:34:14;;;;;;;2.97;0.98;;;21.10;99.90;;;;;;7528797;19;25153;-72
2023/08/04 11:36:46;;;;;;;2.30;1.10;;;21.40;99.90;;;;;;7536274;19;20038;-71
2023/08/04 11:39:18;;;;;;;2.17;1.02;;;21.80;99.90;;;;;;7529407;19;22308;-74
2023/08/04 11:41:51;;;;;;;2.47;1.20;;;22.20;99.90;;;;;;7531422;19;22026;-75
2023/08/04 11:44:24;;;;;;;2.42;1.35;;;22.60;99.70;;;;;;7537756;19;20043;-73
2023/08/04 11:46:56;;;;;;;1.90;0.98;;;22.70;96.60;;;;;;7535454;19;20014;-73
2023/08/04 11:49:29;;;;;;;2.70;1.20;;;22.80;95.90;;;;;;7569180;19;21636;-74
2023/08/04 11:52:06;;;;;;;1.20;0.90;;;23.10;97.70;;;;;;7528276;19;21140;-72
2023/08/04 11:54:58;;;;;;;1.30;0.85;;;23.30;95.20;;;;;;7544629;19;20021;-72
2023/08/04 11:57:31;;;;;;;2.03;1.20;;;23.60;94.60;;;;;;7551734;19;20026;-73
2023/08/04 12:00:05;;;;;;;1.52;1.02;;;23.90;92.30;;;;;;7553739;19;20059;-74
2023/08/04 12:03:10;;;;;;;2.38;1.08;;;24.10;93.10;;;;;;7549314;19;20015;-72
2023/08/04 12:05:43;;;;;;;2.38;0.93;;;24.10;92.30;;;;;;7560405;19;20018;-72
2023/08/04 12:08:16;;;;;;;2.53;1.17;;;23.90;90.90;;;;;;7557356;19;20026;-74
2023/08/04 12:11:00;;;;;;;1.75;1.20;;;23.90;90.30;;;;;;7563802;19;20055;-72
2023/08/04 12:13:35;;;;;;;1.98;0.90;;;23.90;91.60;;;;;;7565481;19;20021;-73
2023/08/04 12:16:09;;;;;;;2.85;1.25;;;23.90;91.60;;;;;;7575847;19;20002;-75
2023/08/04 12:18:41;;;;;;;2.22;1.00;;;23.70;91.60;;;;;;7573676;19;20015;-74
2023/08/04 12:21:15;;;;;;;1.58;1.00;;;23.60;91.00;;;;;;7558711;19;20694;-74
2023/08/04 12:23:49;;;;;;;6.03;1.23;;;23.60;90.50;;;;;;7552327;19;20018;-74
2023/08/04 12:26:23;;;;;;;1.42;0.90;;;23.60;88.00;;;;;;7549219;19;20045;-74
2023/08/04 12:28:55;;;;;;;2.20;0.90;;;23.50;88.30;;;;;;7554630;19;20058;-74
2023/08/04 12:31:28;;;;;;;1.40;1.00;;;23.30;88.70;;;;;;7540767;19;20055;-73
2023/08/04 12:34:01;;;;;;;2.53;1.10;;;23.30;90.20;;;;;;7572917;19;20018;-74
2023/08/04 12:36:34;;;;;;;1.98;1.05;;;23.20;90.70;;;;;;7565972;19;20059;-74
2023/08/04 12:39:09;;;;;;;2.42;1.10;;;23.10;90.40;;;;;;7564564;19;22242;-73
2023/08/04 12:41:42;;;;;;;1.80;1.17;;;22.90;90.00;;;;;;7570773;19;20021;-73
2023/08/04 12:44:16;;;;;;;2.45;1.00;;;22.90;90.50;;;;;;7552767;19;21000;-74
2023/08/04 12:46:49;;;;;;;2.22;1.33;;;22.90;89.40;;;;;;7567460;19;20015;-72
2023/08/04 12:49:22;;;;;;;2.17;0.98;;;22.90;91.30;;;;;;7544310;19;20353;-72
2023/08/04 12:51:55;;;;;;;2.05;1.10;;;22.80;90.10;;;;;;7568578;19;20632;-74
2023/08/04 12:54:30;;;;;;;1.73;1.13;;;22.70;91.50;;;;;;7539403;19;20014;-76
2023/08/04 12:57:03;;;;;;;2.78;1.10;;;22.70;90.00;;;;;;7573640;19;20010;-74
2023/08/04 12:59:36;;;;;;;2.33;1.30;;;22.60;90.20;;;;;;7575339;19;20014;-74
2023/08/04 13:02:08;;;;;;;2.38;0.82;;;22.50;90.10;;;;;;7558349;19;20287;-73
2023/08/04 13:04:41;;;;;;;3.15;1.20;;;22.50;90.60;;;;;;7549177;19;21665;-75
2023/08/04 13:07:14;;;;;;;5.95;1.33;;;22.30;90.60;;;;;;7560728;19;20018;-78
2023/08/04 13:09:46;;;;;;;1.77;1.07;;;22.30;90.40;;;;;;7566321;19;20011;-75
2023/08/04 13:12:18;;;;;;;3.05;1.15;;;22.20;90.60;;;;;;7570381;19;20391;-73
2023/08/04 13:14:51;;;;;;;4.78;1.02;;;22.20;90.60;;;;;;7571589;19;20364;-73
2023/08/04 13:17:24;;;;;;;1.95;1.23;;;22.20;90.00;;;;;;7566995;19;20126;-71
2023/08/04 13:19:57;;;;;;;1.83;1.10;;;22.20;90.00;;;;;;7560769;19;20021;-73